Time;durP1;ratioP1;P1;durP2;ratioP2;P2;SDS_P1;SDS_P2;PMS_P1;PMS_P2;Temp;Humidity;BMP_temperature;BMP_pressure;BME280_temperature;BME280_humidity;BME280_pressure;Samples;Min_cycle;Max_cycle;Signal;HPM_P1;HPM_P2
2021/06/30 00:00:41;;;;;;;4.30;3.70;;;;;;;17.28;85.07;98987.37;1693255;83;21054;-65
2021/06/30 00:03:08;;;;;;;4.53;3.70;;;;;;;17.29;84.84;98994.30;1677676;84;21086;-65
2021/06/30 00:05:34;;;;;;;5.22;3.55;;;;;;;17.27;84.59;98993.58;1678864;84;20938;-65
2021/06/30 00:08:01;;;;;;;4.00;3.60;;;;;;;17.26;84.52;98994.53;1684433;83;21174;-65
2021/06/30 00:10:28;;;;;;;4.12;3.70;;;;;;;17.22;84.46;98991.77;1686798;83;21242;-65
2021/06/30 00:12:54;;;;;;;6.22;4.10;;;;;;;17.21;84.33;98994.87;1677963;84;20950;-64
2021/06/30 00:15:27;;;;;;;5.33;3.58;;;;;;;17.19;84.23;98997.25;1677900;85;21550;-64
2021/06/30 00:17:54;;;;;;;4.92;3.45;;;;;;;17.18;84.27;99000.39;1686107;84;21045;-65
2021/06/30 00:20:21;;;;;;;4.53;3.75;;;;;;;17.15;84.29;98995.36;1684138;83;21076;-64
2021/06/30 00:22:49;;;;;;;7.72;3.80;;;;;;;17.14;84.05;98996.80;1691311;83;21009;-66
2021/06/30 00:25:16;;;;;;;5.17;4.30;;;;;;;17.11;84.04;98995.23;1689877;83;21636;-64
2021/06/30 00:27:44;;;;;;;5.40;4.90;;;;;;;17.08;84.25;98994.62;1680142;84;21057;-65
2021/06/30 00:30:15;;;;;;;4.55;3.72;;;;;;;17.06;84.88;98989.47;1693395;83;21575;-65
2021/06/30 00:32:42;;;;;;;4.00;3.60;;;;;;;17.05;85.20;98990.91;1685872;83;21068;-65
2021/06/30 00:35:11;;;;;;;5.78;4.08;;;;;;;17.04;84.79;98991.85;1687848;83;21556;-65
2021/06/30 00:37:38;;;;;;;5.45;4.83;;;;;;;17.01;84.70;98992.08;1712690;83;21054;-65
2021/06/30 00:40:06;;;;;;;8.48;6.60;;;;;;;16.98;85.04;98995.80;1685251;84;21100;-65
2021/06/30 00:42:34;;;;;;;5.30;3.87;;;;;;;16.97;85.46;98991.97;1686725;83;20958;-65
2021/06/30 00:45:05;;;;;;;4.35;3.35;;;;;;;16.96;85.23;98996.87;1683943;84;20990;-65
2021/06/30 00:47:32;;;;;;;4.42;3.80;;;;;;;16.95;84.85;98993.88;1684756;83;21367;-66
2021/06/30 00:50:00;;;;;;;4.03;3.60;;;;;;;16.91;84.73;98991.95;1687953;83;20961;-65
2021/06/30 00:52:28;;;;;;;4.95;3.90;;;;;;;16.88;84.74;98989.55;1698457;83;21029;-65
2021/06/30 00:54:55;;;;;;;5.70;3.75;;;;;;;16.85;84.71;98989.77;1690740;83;21424;-66
2021/06/30 00:57:21;;;;;;;7.90;3.27;;;;;;;16.79;84.71;98992.38;1684055;83;21049;-66
2021/06/30 00:59:49;;;;;;;6.17;4.12;;;;;;;16.79;84.71;98992.38;1683914;84;21005;-66
2021/06/30 01:02:16;;;;;;;8.25;3.72;;;;;;;16.75;84.71;98992.73;1677760;84;21155;-66
2021/06/30 01:04:42;;;;;;;4.58;4.17;;;;;;;16.71;84.98;98985.55;1684514;84;21167;-66
2021/06/30 01:07:10;;;;;;;5.22;3.55;;;;;;;16.70;85.16;98988.30;1689394;83;21006;-66
2021/06/30 01:09:38;;;;;;;3.83;3.37;;;;;;;16.67;85.18;98988.05;1685307;83;21029;-66
2021/06/30 01:12:06;;;;;;;4.85;4.33;;;;;;;16.65;85.35;98993.04;1682020;84;20967;-66
2021/06/30 01:14:34;;;;;;;5.92;4.50;;;;;;;16.64;85.53;98995.30;1693636;83;20974;-66
2021/06/30 01:17:04;;;;;;;10.00;5.30;;;;;;;16.61;85.76;99001.58;1677915;84;21222;-66
2021/06/30 01:19:31;;;;;;;4.40;3.80;;;;;;;16.59;86.07;98992.98;1677867;84;20990;-66
2021/06/30 01:21:59;;;;;;;12.18;4.40;;;;;;;16.58;86.20;98994.43;1684099;83;21084;-66
2021/06/30 01:24:25;;;;;;;6.05;5.03;;;;;;;16.57;86.00;98994.06;1688457;83;21048;-66
2021/06/30 01:26:52;;;;;;;6.65;5.12;;;;;;;16.54;85.97;98989.88;1689218;84;21580;-64
2021/06/30 01:29:20;;;;;;;6.97;4.35;;;;;;;16.51;86.24;98987.47;1710027;83;21141;-65
2021/06/30 01:31:46;;;;;;;5.05;3.80;;;;;;;16.52;86.12;98995.23;1688812;83;21481;-66
2021/06/30 01:34:13;;;;;;;4.03;3.72;;;;;;;16.49;85.91;98991.52;1678432;84;21419;-65
2021/06/30 01:36:47;;;;;;;5.05;4.55;;;;;;;16.47;85.75;98988.64;1681839;83;21010;-66
2021/06/30 01:39:15;;;;;;;6.55;5.00;;;;;;;16.45;85.86;98989.22;1681612;83;21049;-65
2021/06/30 01:41:42;;;;;;;5.50;4.97;;;;;;;16.43;86.28;98996.37;1681833;83;21974;-65
2021/06/30 01:44:09;;;;;;;5.37;3.92;;;;;;;16.41;86.53;98995.16;1682045;84;20953;-65
2021/06/30 01:46:35;;;;;;;5.20;4.20;;;;;;;16.41;86.46;98996.95;1681349;83;21410;-65
2021/06/30 01:49:01;;;;;;;8.28;4.67;;;;;;;16.42;86.80;99002.56;1681534;84;21074;-65
2021/06/30 01:51:28;;;;;;;5.22;4.72;;;;;;;16.41;87.24;99004.35;1691233;83;21060;-66
2021/06/30 01:53:56;;;;;;;5.90;5.30;;;;;;;16.43;87.91;99000.30;1683707;83;21149;-65
2021/06/30 01:56:24;;;;;;;7.03;4.80;;;;;;;16.45;88.51;99005.81;1685812;84;21609;-65
2021/06/30 01:59:13;;;;;;;5.65;4.30;;;;;;;16.47;88.84;99007.02;1692329;82;21009;-65
2021/06/30 02:01:41;;;;;;;5.87;5.03;;;;;;;16.48;88.54;99000.81;1693687;83;21540;-65
2021/06/30 02:04:08;;;;;;;6.15;5.25;;;;;;;16.49;89.67;99001.18;1682411;82;20998;-66
2021/06/30 02:06:43;;;;;;;6.12;4.50;;;;;;;16.53;89.86;99007.89;1685708;83;21150;-65
2021/06/30 02:09:12;;;;;;;8.70;5.05;;;;;;;16.57;90.32;99007.19;1681659;83;20962;-65
2021/06/30 02:11:40;;;;;;;7.58;4.65;;;;;;;16.68;90.69;99009.41;1682228;83;21073;-66
2021/06/30 02:14:08;;;;;;;7.67;5.37;;;;;;;16.68;90.69;99009.41;1692134;83;21001;-66
2021/06/30 02:16:36;;;;;;;5.70;5.20;;;;;;;16.99;90.17;99004.02;1685574;83;20982;-65
2021/06/30 02:19:06;;;;;;;6.17;4.25;;;;;;;16.99;90.17;99004.02;1690415;83;21192;-65
2021/06/30 02:21:33;;;;;;;6.50;4.05;;;;;;;17.20;89.08;98998.93;1686044;83;20970;-66
2021/06/30 02:24:00;;;;;;;41.37;22.58;;;;;;;17.45;87.67;99005.78;1685084;83;21101;-66
2021/06/30 02:26:28;;;;;;;5.87;3.95;;;;;;;17.74;86.01;99002.26;1684132;83;20950;-66
2021/06/30 02:28:55;;;;;;;4.50;3.95;;;;;;;18.04;84.26;99009.03;1691081;83;21115;-66
2021/06/30 02:31:23;;;;;;;5.08;3.87;;;;;;;18.38;82.38;99004.56;1697659;82;21122;-66
2021/06/30 02:33:50;;;;;;;5.20;4.17;;;;;;;18.72;80.55;99009.26;1683888;83;21058;-66
2021/06/30 02:36:16;;;;;;;4.92;3.75;;;;;;;19.10;78.43;99007.39;1689443;83;21158;-66
2021/06/30 02:38:44;;;;;;;10.65;4.70;;;;;;;19.47;76.53;99005.11;1707373;83;20978;-66
2021/06/30 02:41:11;;;;;;;10.68;4.08;;;;;;;19.84;74.68;99004.61;1688707;83;21422;-66
2021/06/30 02:43:38;;;;;;;5.95;4.33;;;;;;;20.19;72.96;98996.23;1682305;84;21145;-66
2021/06/30 02:46:06;;;;;;;8.08;4.22;;;;;;;20.57;71.37;98995.03;1683755;83;21530;-66
2021/06/30 02:48:32;;;;;;;4.47;4.05;;;;;;;20.93;69.94;98994.81;1693032;82;21100;-66
2021/06/30 02:50:59;;;;;;;7.72;4.20;;;;;;;21.27;68.54;98989.07;1693262;83;21457;-66
2021/06/30 02:53:26;;;;;;;5.35;3.50;;;;;;;21.64;67.47;98993.06;1683502;83;21037;-66
2021/06/30 02:55:54;;;;;;;4.72;3.95;;;;;;;22.03;65.89;98987.13;1687119;83;21126;-66
2021/06/30 02:58:20;;;;;;;4.92;3.52;;;;;;;22.39;64.38;98982.72;1677657;84;21430;-66
2021/06/30 03:00:47;;;;;;;5.00;3.75;;;;;;;22.72;63.11;98982.55;1685736;83;21057;-66
2021/06/30 03:03:13;;;;;;;6.08;4.25;;;;;;;23.02;62.08;98987.46;1677382;84;21033;-66
2021/06/30 03:05:40;;;;;;;5.55;3.67;;;;;;;23.36;61.15;98986.23;1691274;83;21520;-67
2021/06/30 03:08:06;;;;;;;7.60;3.60;;;;;;;23.75;60.30;98987.14;1680429;83;21102;-66
2021/06/30 03:10:33;;;;;;;5.17;3.33;;;;;;;24.13;58.89;98991.59;1684271;84;21505;-66
2021/06/30 03:13:00;;;;;;;5.12;3.65;;;;;;;24.50;57.47;98993.38;1689621;83;21119;-66
2021/06/30 03:15:27;;;;;;;5.20;3.55;;;;;;;24.89;56.24;98991.42;1687240;83;20994;-66
2021/06/30 03:17:53;;;;;;;6.03;3.58;;;;;;;25.24;55.11;98987.09;1681297;84;21029;-67
2021/06/30 03:20:20;;;;;;;6.72;3.90;;;;;;;25.62;54.11;98990.88;1680466;83;21745;-67
2021/06/30 03:22:47;;;;;;;4.62;3.87;;;;;;;25.99;53.09;98987.56;1686460;83;20958;-67
2021/06/30 03:25:14;;;;;;;5.22;3.60;;;;;;;26.33;52.35;98978.45;1702392;83;21075;-67
2021/06/30 03:27:42;;;;;;;5.10;4.25;;;;;;;26.68;51.66;98987.20;1690054;83;21014;-67
2021/06/30 03:30:11;;;;;;;8.60;4.55;;;;;;;27.08;51.39;98988.75;1633735;86;21073;-67
2021/06/30 03:32:39;;;;;;;5.55;4.60;;;;;;;27.45;50.63;98990.55;1638418;84;21584;-67
2021/06/30 03:35:08;;;;;;;10.30;5.12;;;;;;;27.85;49.71;98992.98;1640327;86;21087;-67
2021/06/30 03:37:34;;;;;;;9.48;5.50;;;;;;;28.21;48.72;98993.05;1633016;86;20974;-67
2021/06/30 03:40:01;;;;;;;6.60;5.37;;;;;;;28.58;48.04;98997.40;1692848;84;21604;-67
2021/06/30 03:42:28;;;;;;;9.90;5.30;;;;;;;28.95;46.65;98993.66;1639488;86;21088;-67
2021/06/30 03:44:54;;;;;;;7.92;5.72;;;;;;;29.27;45.78;98998.45;1689593;83;21115;-67
2021/06/30 03:47:21;;;;;;;14.25;5.62;;;;;;;29.58;44.91;98995.37;1682379;83;21632;-67
2021/06/30 03:49:47;;;;;;;8.83;5.20;;;;;;;29.89;44.33;98999.48;1687899;83;21072;-67
2021/06/30 03:52:14;;;;;;;11.68;5.92;;;;;;;30.19;43.23;98998.20;1683227;84;21072;-67
2021/06/30 03:54:41;;;;;;;8.88;5.87;;;;;;;30.45;42.58;99005.52;1699493;83;21151;-67
2021/06/30 03:57:07;;;;;;;5.17;4.72;;;;;;;30.68;42.41;99001.98;1684642;83;21129;-67
2021/06/30 03:59:34;;;;;;;15.78;6.72;;;;;;;30.92;41.66;99006.47;1679511;84;20966;-67
2021/06/30 04:02:00;;;;;;;6.20;5.40;;;;;;;31.14;41.01;99002.58;1686415;83;21108;-67
2021/06/30 04:04:26;;;;;;;11.22;6.05;;;;;;;31.28;40.53;99001.53;1687948;83;21243;-67
2021/06/30 04:06:54;;;;;;;9.70;5.08;;;;;;;31.46;40.08;98994.17;1689452;83;21126;-67
2021/06/30 04:09:22;;;;;;;10.00;5.83;;;;;;;31.71;39.54;98992.51;1681901;83;21103;-66
2021/06/30 04:11:49;;;;;;;7.00;5.35;;;;;;;31.94;39.27;98992.03;1688266;83;20990;-66
2021/06/30 04:14:15;;;;;;;5.90;5.20;;;;;;;32.16;38.89;98997.94;1682408;82;21461;-66
2021/06/30 04:16:42;;;;;;;6.97;5.65;;;;;;;32.40;38.37;98999.08;1685579;83;20981;-65
2021/06/30 04:19:08;;;;;;;11.80;9.48;;;;;;;32.62;37.93;98999.57;1690413;83;21171;-65
2021/06/30 04:21:35;;;;;;;13.08;7.55;;;;;;;32.81;37.40;98994.60;1691867;83;21185;-65
2021/06/30 04:24:01;;;;;;;9.48;6.15;;;;;;;32.99;37.46;99000.58;1688990;83;21524;-65
2021/06/30 04:26:30;;;;;;;7.80;5.90;;;;;;;33.17;36.96;99002.81;1688687;83;21005;-66
2021/06/30 04:28:56;;;;;;;8.03;5.92;;;;;;;33.40;36.67;99017.05;1687766;83;20970;-66
2021/06/30 04:31:22;;;;;;;9.63;5.50;;;;;;;33.62;36.51;99007.20;1688320;83;21425;-66
2021/06/30 04:33:49;;;;;;;8.00;6.22;;;;;;;33.85;35.86;99002.00;1686575;83;21165;-66
2021/06/30 04:36:17;;;;;;;8.28;6.00;;;;;;;33.99;35.59;98995.92;1686155;83;20955;-65
2021/06/30 04:38:44;;;;;;;13.75;7.35;;;;;;;34.19;35.31;98997.84;1689929;83;21453;-66
2021/06/30 04:41:11;;;;;;;7.20;5.47;;;;;;;34.33;35.13;98998.02;1686800;83;20962;-66
2021/06/30 04:43:39;;;;;;;10.25;5.55;;;;;;;34.42;35.19;99000.69;1679621;84;20997;-66
2021/06/30 04:46:06;;;;;;;10.58;6.67;;;;;;;34.59;34.70;99004.09;1683061;83;21177;-66
2021/06/30 04:48:34;;;;;;;16.27;7.17;;;;;;;34.74;34.48;99005.34;1691279;83;20962;-66
2021/06/30 04:51:02;;;;;;;13.62;6.25;;;;;;;34.89;34.05;98997.64;1692500;83;21498;-66
2021/06/30 04:53:29;;;;;;;11.73;6.87;;;;;;;35.09;33.18;99002.73;1686947;83;21099;-66
2021/06/30 04:55:56;;;;;;;9.98;6.28;;;;;;;35.22;32.91;99003.84;1693764;83;20996;-65
2021/06/30 04:58:23;;;;;;;8.20;5.70;;;;;;;35.38;32.80;98995.59;1681158;84;21235;-66
2021/06/30 05:00:56;;;;;;;5.97;5.22;;;;;;;35.55;32.49;99004.66;1688642;83;21467;-66
2021/06/30 05:03:27;;;;;;;10.28;5.97;;;;;;;35.68;32.43;99011.70;1684285;83;20978;-65
2021/06/30 05:05:54;;;;;;;7.12;5.70;;;;;;;35.78;31.98;99005.17;1683395;83;21573;-65
2021/06/30 05:08:24;;;;;;;7.35;6.28;;;;;;;35.92;31.50;99002.23;1681316;84;21002;-66
2021/06/30 05:10:51;;;;;;;10.25;6.45;;;;;;;36.07;31.30;99002.00;1681256;85;21191;-66
2021/06/30 05:13:17;;;;;;;12.78;6.47;;;;;;;36.14;31.00;99005.41;1684847;83;21462;-66
2021/06/30 05:15:44;;;;;;;14.85;6.92;;;;;;;36.30;30.55;99004.38;1686152;84;21398;-66
2021/06/30 05:18:10;;;;;;;7.58;6.97;;;;;;;36.35;30.46;99000.42;1694498;83;20971;-66
2021/06/30 05:20:37;;;;;;;9.50;5.83;;;;;;;36.44;30.23;99003.02;1683832;84;21034;-66
2021/06/30 05:23:03;;;;;;;12.47;6.75;;;;;;;36.54;29.70;99011.34;1681626;84;23143;-67
2021/06/30 05:25:30;;;;;;;12.63;6.83;;;;;;;36.64;29.42;99006.63;1679953;84;20994;-66
2021/06/30 05:27:57;;;;;;;7.72;6.22;;;;;;;36.72;29.16;99007.63;1687769;83;20962;-66
2021/06/30 05:30:23;;;;;;;11.88;6.22;;;;;;;36.81;29.60;99006.16;1688260;83;20977;-66
2021/06/30 05:32:49;;;;;;;6.95;5.10;;;;;;;36.89;30.13;99004.41;1687732;83;21058;-67
2021/06/30 05:35:15;;;;;;;7.70;5.95;;;;;;;36.96;29.84;99006.44;1681547;83;21784;-67
2021/06/30 05:37:42;;;;;;;7.40;5.80;;;;;;;37.03;29.38;99011.67;1681967;83;21069;-67
2021/06/30 05:40:10;;;;;;;8.65;6.70;;;;;;;37.02;29.52;99014.92;1685484;83;21061;-66
2021/06/30 05:42:38;;;;;;;9.85;6.95;;;;;;;36.98;29.27;99015.11;1685408;83;21087;-67
2021/06/30 05:45:07;;;;;;;7.42;6.50;;;;;;;36.98;29.35;99015.11;1681759;82;21091;-66
2021/06/30 05:47:34;;;;;;;13.95;6.15;;;;;;;37.03;28.54;99009.78;1691668;83;21777;-67
2021/06/30 05:50:00;;;;;;;10.15;5.95;;;;;;;37.10;28.74;99008.28;1684919;83;21025;-66
2021/06/30 05:52:26;;;;;;;8.73;5.25;;;;;;;37.16;28.50;99010.02;1684141;83;21158;-66
2021/06/30 05:54:53;;;;;;;11.50;6.25;;;;;;;37.15;28.04;99007.02;1689926;83;21050;-68
2021/06/30 05:57:19;;;;;;;8.10;5.03;;;;;;;37.13;27.81;99006.44;1703065;82;21039;-67
2021/06/30 05:59:45;;;;;;;8.73;5.97;;;;;;;37.04;27.78;99011.43;1681150;83;21087;-67
2021/06/30 06:02:12;;;;;;;12.90;6.17;;;;;;;36.91;27.99;99012.59;1682971;83;21618;-66
2021/06/30 06:04:38;;;;;;;13.13;9.25;;;;;;;36.67;28.43;99015.63;1685805;83;21089;-66
2021/06/30 06:07:04;;;;;;;12.33;5.12;;;;;;;36.47;28.67;99016.91;1683082;83;21081;-66
2021/06/30 06:09:33;;;;;;;9.78;5.45;;;;;;;36.23;28.85;99012.59;1682525;84;21017;-67
2021/06/30 06:12:00;;;;;;;8.88;4.15;;;;;;;35.92;28.95;99004.93;1683905;82;21976;-67
2021/06/30 06:14:26;;;;;;;6.67;3.90;;;;;;;35.66;29.02;99010.28;1686597;84;20934;-66
2021/06/30 06:16:56;;;;;;;7.50;4.62;;;;;;;35.41;29.34;99014.58;1688366;83;21006;-66
2021/06/30 06:19:23;;;;;;;5.33;3.55;;;;;;;35.15;29.45;99018.02;1682690;84;20986;-67
2021/06/30 06:21:50;;;;;;;12.65;5.55;;;;;;;34.92;29.58;99019.33;1686907;84;21084;-66
2021/06/30 06:24:16;;;;;;;6.70;3.77;;;;;;;34.73;29.59;99021.77;1632930;86;21163;-66
2021/06/30 06:26:43;;;;;;;7.87;3.50;;;;;;;34.57;29.73;99017.84;1683322;83;20997;-66
2021/06/30 06:29:10;;;;;;;10.95;4.28;;;;;;;34.40;29.86;99018.98;1660394;86;21117;-66
2021/06/30 06:31:38;;;;;;;6.65;4.12;;;;;;;34.27;30.18;99017.80;1686280;84;21183;-66
2021/06/30 06:34:04;;;;;;;18.90;4.62;;;;;;;34.12;29.89;99020.06;1687621;84;21096;-67
2021/06/30 06:36:31;;;;;;;5.87;3.77;;;;;;;33.90;30.67;99015.66;1692610;83;21136;-67
2021/06/30 06:38:57;;;;;;;6.15;4.47;;;;;;;33.69;31.19;99022.27;1684589;84;20994;-67
2021/06/30 06:41:24;;;;;;;8.55;5.15;;;;;;;33.54;30.78;99017.77;1686521;84;20951;-66
2021/06/30 06:43:50;;;;;;;9.90;4.80;;;;;;;33.35;31.24;99010.17;1644937;85;21085;-66
2021/06/30 06:46:16;;;;;;;4.17;3.45;;;;;;;33.08;31.83;99009.53;1687262;83;20954;-67
2021/06/30 06:48:43;;;;;;;9.80;4.05;;;;;;;32.55;31.95;99013.09;1685245;83;21057;-66
2021/06/30 06:51:09;;;;;;;10.55;4.33;;;;;;;31.97;32.69;99005.58;1684012;84;20974;-67
2021/06/30 06:53:35;;;;;;;5.97;3.20;;;;;;;31.55;33.23;99010.41;1638365;86;21077;-67
2021/06/30 06:56:08;;;;;;;6.65;4.85;;;;;;;31.31;32.94;99018.59;1686375;84;21085;-66
2021/06/30 06:58:32;;;;;;;7.47;4.10;;;;;;;31.12;33.25;99013.53;1685135;83;21160;-66
2021/06/30 07:00:59;;;;;;;6.83;3.87;;;;;;;31.01;34.16;99010.58;1682622;84;21237;-66
2021/06/30 07:03:25;;;;;;;7.60;4.28;;;;;;;30.88;33.97;99006.05;1684852;84;21041;-66
2021/06/30 07:05:52;;;;;;;5.97;3.80;;;;;;;30.75;33.79;99004.70;1683882;84;21013;-67
2021/06/30 07:08:18;;;;;;;6.80;4.30;;;;;;;30.63;34.01;99003.11;1686230;84;21048;-67
2021/06/30 07:10:45;;;;;;;8.30;3.47;;;;;;;30.55;34.58;99001.11;1701976;83;20943;-67
2021/06/30 07:13:12;;;;;;;8.30;3.77;;;;;;;30.46;34.13;99006.66;1683429;84;21045;-66
2021/06/30 07:15:41;;;;;;;6.50;2.95;;;;;;;30.36;34.33;99006.73;1685293;84;21052;-66
2021/06/30 07:18:14;;;;;;;5.95;3.70;;;;;;;30.23;34.15;99006.67;1681969;84;21006;-67
2021/06/30 07:20:42;;;;;;;3.70;3.22;;;;;;;30.12;34.68;99008.92;1686889;83;21002;-66
2021/06/30 07:23:10;;;;;;;4.65;3.00;;;;;;;30.04;34.91;99009.08;1684512;83;21532;-67
2021/06/30 07:25:38;;;;;;;4.58;2.35;;;;;;;29.94;34.47;99005.91;1685229;84;21159;-66
2021/06/30 07:28:05;;;;;;;2.72;2.52;;;;;;;29.88;33.66;99000.00;1687381;84;21625;-66
2021/06/30 07:30:32;;;;;;;9.58;2.90;;;;;;;29.81;34.04;98996.45;1687848;84;20998;-67
2021/06/30 07:32:59;;;;;;;4.08;3.00;;;;;;;29.76;35.08;98997.06;1682278;84;21525;-66
2021/06/30 07:35:26;;;;;;;3.33;2.50;;;;;;;29.76;35.07;98994.89;1686459;83;21026;-67
2021/06/30 07:37:53;;;;;;;4.87;3.47;;;;;;;29.74;33.40;98992.92;1686280;83;21130;-67
2021/06/30 07:40:19;;;;;;;3.30;3.00;;;;;;;29.74;33.63;98988.91;1686899;84;21030;-67
2021/06/30 07:42:46;;;;;;;4.87;2.77;;;;;;;29.76;33.85;98986.86;1684229;84;21509;-67
2021/06/30 07:45:12;;;;;;;7.00;3.10;;;;;;;29.70;33.31;98987.13;1686541;84;21001;-67
2021/06/30 07:47:39;;;;;;;4.37;2.40;;;;;;;29.62;33.16;98987.27;1642897;86;21465;-67
2021/06/30 07:50:07;;;;;;;3.30;2.33;;;;;;;29.58;32.51;98991.88;1685436;84;21149;-67
2021/06/30 07:52:34;;;;;;;2.70;2.22;;;;;;;29.62;32.71;98987.27;1682535;84;21648;-67
2021/06/30 07:55:00;;;;;;;4.17;2.05;;;;;;;29.66;32.49;98987.70;1678550;85;21465;-67
2021/06/30 07:57:27;;;;;;;6.20;2.60;;;;;;;29.71;31.20;98989.30;1686965;83;20945;-67
2021/06/30 07:59:53;;;;;;;3.75;2.47;;;;;;;29.77;31.09;98993.36;1687435;83;21012;-67
2021/06/30 08:02:20;;;;;;;2.35;2.15;;;;;;;29.82;30.63;98993.57;1634653;86;23280;-66
2021/06/30 08:04:48;;;;;;;6.80;5.33;;;;;;;29.85;30.49;99000.39;1682541;84;21436;-67
2021/06/30 08:07:16;;;;;;;6.25;2.67;;;;;;;29.84;30.21;98994.71;1680417;84;21001;-67
2021/06/30 08:09:42;;;;;;;10.08;2.25;;;;;;;29.83;30.42;98997.91;1684761;84;21017;-67
2021/06/30 08:12:09;;;;;;;2.05;1.60;;;;;;;29.84;30.08;98994.71;1683189;83;20978;-67
2021/06/30 08:14:37;;;;;;;3.12;2.17;;;;;;;29.79;30.21;99002.00;1683843;85;20934;-66
2021/06/30 08:17:04;;;;;;;4.42;2.72;;;;;;;29.73;30.34;99003.33;1676075;85;21207;-66
2021/06/30 08:19:32;;;;;;;7.87;2.37;;;;;;;29.70;30.64;98995.67;1696202;84;21063;-67
2021/06/30 08:22:00;;;;;;;2.80;1.77;;;;;;;29.69;30.52;98996.70;1686084;84;21081;-67
2021/06/30 08:24:27;;;;;;;8.93;2.60;;;;;;;29.69;29.99;98986.80;1683236;84;21018;-66
2021/06/30 08:26:55;;;;;;;4.83;2.55;;;;;;;29.63;30.43;98989.44;1673646;85;21148;-66
2021/06/30 08:29:23;;;;;;;6.50;3.17;;;;;;;29.58;31.14;98981.98;1701339;84;21430;-67
2021/06/30 08:31:50;;;;;;;5.97;2.67;;;;;;;29.60;31.72;98984.47;1701842;84;21496;-67
2021/06/30 08:34:16;;;;;;;2.87;1.98;;;;;;;29.62;32.14;98983.77;1689166;84;21038;-67
2021/06/30 08:36:43;;;;;;;4.33;2.00;;;;;;;29.65;32.00;98978.84;1678790;84;21053;-67
2021/06/30 08:39:10;;;;;;;4.80;1.80;;;;;;;29.70;31.57;98981.77;1689723;84;21500;-68
2021/06/30 08:41:37;;;;;;;10.20;2.90;;;;;;;29.74;31.56;98983.54;1699995;84;21613;-67
2021/06/30 08:44:04;;;;;;;2.95;2.10;;;;;;;29.75;32.06;98983.34;1685473;84;21033;-67
2021/06/30 08:46:32;;;;;;;2.72;2.42;;;;;;;29.81;31.61;98985.20;1692799;84;21082;-67
2021/06/30 08:48:59;;;;;;;4.92;2.47;;;;;;;29.89;31.17;98982.89;1691769;84;21311;-67
2021/06/30 08:51:26;;;;;;;2.40;1.87;;;;;;;29.97;30.84;98976.54;1683079;84;21015;-66
2021/06/30 08:53:55;;;;;;;4.92;2.08;;;;;;;30.04;30.72;98974.21;1692752;84;21030;-67
2021/06/30 08:56:30;;;;;;;2.98;2.25;;;;;;;30.06;30.09;98974.84;1681991;84;21200;-66
2021/06/30 08:58:51;;;;;;;5.00;2.12;;;;;;;30.03;30.67;98971.22;1683566;84;21098;-67
2021/06/30 09:01:18;;;;;;;7.50;2.30;;;;;;;30.09;30.48;98972.28;1690902;84;21027;-67
2021/06/30 09:03:51;;;;;;;8.85;3.35;;;;;;;30.16;30.12;98974.48;1684185;84;21088;-66
2021/06/30 09:06:13;;;;;;;2.52;2.05;;;;;;;30.21;28.98;98973.85;1682408;84;21070;-66
2021/06/30 09:08:51;;;;;;;2.70;2.12;;;;;;;30.22;29.20;98968.29;1685452;84;21011;-65
2021/06/30 09:11:20;;;;;;;3.22;2.35;;;;;;;30.16;29.12;98965.09;1681661;84;21011;-66
2021/06/30 09:13:50;;;;;;;2.60;2.40;;;;;;;30.10;29.54;98969.91;1684024;84;21023;-66
2021/06/30 09:16:16;;;;;;;3.40;2.10;;;;;;;30.08;30.17;98968.77;1681153;84;21192;-66
2021/06/30 09:18:43;;;;;;;5.00;3.20;;;;;;;30.12;30.36;98963.32;1644574;86;21012;-66
2021/06/30 09:21:26;;;;;;;5.85;2.90;;;;;;;30.14;30.08;98964.47;1692407;84;21108;-67
2021/06/30 09:24:04;;;;;;;3.08;2.40;;;;;;;30.12;30.07;98964.66;1684467;84;21066;-66
2021/06/30 09:26:38;;;;;;;3.83;2.80;;;;;;;30.12;30.64;98963.84;1687246;84;21049;-68
2021/06/30 09:29:10;;;;;;;3.17;2.72;;;;;;;30.11;30.31;98960.84;1683440;84;21782;-67
2021/06/30 09:31:42;;;;;;;6.95;2.83;;;;;;;30.13;31.07;98960.12;1686617;84;21045;-66
2021/06/30 09:34:09;;;;;;;6.53;3.92;;;;;;;30.19;31.45;98961.16;1662998;84;21088;-66
2021/06/30 09:37:06;;;;;;;3.60;3.30;;;;;;;30.25;31.33;98968.41;1678002;84;21419;-67
2021/06/30 09:39:37;;;;;;;9.25;3.20;;;;;;;30.29;31.38;98969.66;1681123;84;21066;-66
2021/06/30 09:42:09;;;;;;;3.65;3.25;;;;;;;30.40;31.40;98965.03;1683127;84;21142;-67
2021/06/30 09:44:37;;;;;;;4.53;3.80;;;;;;;30.49;30.65;98970.54;1685818;84;21431;-67
2021/06/30 09:47:05;;;;;;;4.83;3.40;;;;;;;30.46;30.68;98974.45;1681782;83;21027;-67
2021/06/30 09:49:35;;;;;;;5.90;3.17;;;;;;;30.49;30.86;98980.76;1688863;84;21465;-67
2021/06/30 09:52:17;;;;;;;3.92;3.58;;;;;;;30.59;31.44;98987.09;1687235;84;21304;-67
2021/06/30 09:54:47;;;;;;;;;;;;;;;30.67;31.20;98990.11;1686047;84;21238;-67
2021/06/30 09:57:16;;;;;;;3.50;2.83;;;;;;;30.72;31.24;98994.36;1689773;84;20167;-68
2021/06/30 09:59:46;;;;;;;4.62;3.67;;;;;;;30.76;31.29;98987.04;1683168;85;21018;-66
2021/06/30 10:02:17;;;;;;;5.17;3.80;;;;;;;30.83;31.60;98986.52;1695927;84;20974;-66
2021/06/30 10:04:49;;;;;;;12.37;3.58;;;;;;;30.93;31.31;98975.89;1692295;84;21451;-68
2021/06/30 10:07:22;;;;;;;4.62;3.25;;;;;;;30.96;31.35;98986.23;1651792;85;21746;-66
2021/06/30 10:09:54;;;;;;;3.65;3.15;;;;;;;30.95;30.61;98984.06;1684563;84;21192;-64
2021/06/30 10:12:26;;;;;;;6.12;3.55;;;;;;;30.91;31.00;98987.36;1687289;84;21526;-66
2021/06/30 10:14:54;;;;;;;4.87;3.92;;;;;;;30.91;30.70;98990.04;1690760;84;21034;-66
2021/06/30 10:17:21;;;;;;;7.92;3.58;;;;;;;30.93;30.79;98975.89;1683774;84;21031;-65
2021/06/30 10:19:51;;;;;;;4.87;3.80;;;;;;;31.01;31.04;98972.47;1696741;84;21574;-66
2021/06/30 10:22:17;;;;;;;3.40;3.10;;;;;;;31.08;30.55;98969.80;1688809;84;21082;-65
2021/06/30 10:24:44;;;;;;;9.55;3.37;;;;;;;31.15;29.96;98963.42;1685343;84;20954;-67
2021/06/30 10:27:14;;;;;;;4.97;3.27;;;;;;;31.24;30.37;98955.13;1689911;84;21470;-66
2021/06/30 10:29:44;;;;;;;3.52;3.22;;;;;;;31.34;31.42;98945.62;1683565;84;21022;-66
2021/06/30 10:32:15;;;;;;;5.30;3.72;;;;;;;31.44;30.67;98948.69;1686650;84;23046;-66
2021/06/30 10:34:47;;;;;;;3.35;3.02;;;;;;;31.42;30.66;98954.79;1681536;84;21569;-67
2021/06/30 10:37:29;;;;;;;6.57;3.30;;;;;;;31.38;30.82;98958.92;1690409;84;21290;-66
2021/06/30 10:40:06;;;;;;;3.45;3.25;;;;;;;31.32;30.91;98962.47;1695879;84;21211;-66
2021/06/30 10:42:47;;;;;;;9.68;4.00;;;;;;;31.35;31.53;98954.52;1690392;84;21049;-64
2021/06/30 10:45:21;;;;;;;10.93;4.47;;;;;;;31.48;31.99;98958.51;1681479;84;21121;-66
2021/06/30 10:47:50;;;;;;;6.55;4.47;;;;;;;31.64;31.72;98955.36;1703220;84;21072;-65
2021/06/30 10:50:26;;;;;;;14.85;4.97;;;;;;;31.80;31.70;98958.13;1702226;84;20982;-66
2021/06/30 10:53:03;;;;;;;4.12;3.67;;;;;;;31.96;31.80;98956.84;1685622;84;21543;-67
2021/06/30 10:55:41;;;;;;;6.85;3.47;;;;;;;32.04;31.00;98949.34;1686830;84;21071;-66
2021/06/30 10:58:17;;;;;;;4.85;3.80;;;;;;;32.10;30.56;98947.67;1698276;84;21164;-66
2021/06/30 11:00:59;;;;;;;4.47;3.50;;;;;;;32.05;30.75;98955.55;1681174;84;21007;-66
2021/06/30 11:03:47;;;;;;;4.25;2.92;;;;;;;32.01;30.60;98948.42;1692715;84;21499;-66
2021/06/30 11:06:26;;;;;;;4.47;3.37;;;;;;;31.98;30.67;98951.53;1683261;84;21021;-66
2021/06/30 11:09:05;;;;;;;6.28;3.72;;;;;;;31.87;30.85;98958.11;1695614;84;21000;-67
2021/06/30 11:11:38;;;;;;;12.28;3.77;;;;;;;31.75;31.08;98957.96;1691346;84;21234;-66
2021/06/30 11:14:07;;;;;;;;;;;;;;;31.67;30.93;98953.62;1691980;84;21443;-66
2021/06/30 11:16:46;;;;;;;10.25;4.37;;;;;;;31.68;31.08;98951.25;1694097;84;20170;-66
2021/06/30 11:19:21;;;;;;;13.32;4.37;;;;;;;31.65;30.86;98951.63;1686710;84;21046;-67
2021/06/30 11:22:07;;;;;;;4.00;3.70;;;;;;;31.67;31.57;98940.70;1689171;84;21613;-66
2021/06/30 11:24:43;;;;;;;7.83;3.67;;;;;;;31.75;31.86;98941.83;1684329;84;21219;-67
2021/06/30 11:27:35;;;;;;;4.87;3.52;;;;;;;31.81;31.13;98931.55;1699702;84;20993;-67
2021/06/30 11:30:08;;;;;;;4.33;3.92;;;;;;;31.76;31.42;98930.86;1704940;84;20973;-66
2021/06/30 11:32:39;;;;;;;;;;;;;;;31.80;32.07;98921.83;1696514;84;20993;-66
2021/06/30 11:35:19;;;;;;;10.40;3.62;;;;;;;31.84;32.57;98913.13;1690062;84;20470;-66
2021/06/30 11:37:57;;;;;;;7.40;4.22;;;;;;;31.82;32.43;98917.89;1694394;84;21084;-66